createdAt,value
2023-05-03T00:00:55.396Z,6.00
2023-05-03T00:03:23.761Z,6.00
2023-05-03T00:05:51.831Z,6.20
2023-05-03T00:08:19.758Z,6.10
2023-05-03T00:10:49.120Z,6.00
2023-05-03T00:13:17.060Z,6.00
2023-05-03T00:15:45.007Z,5.80
2023-05-03T00:18:13.245Z,5.90
2023-05-03T00:20:41.265Z,5.80
2023-05-03T00:23:09.266Z,5.70
2023-05-03T00:25:37.212Z,5.70
2023-05-03T00:28:06.717Z,5.70
2023-05-03T00:30:34.697Z,5.70
2023-05-03T00:33:02.802Z,5.70
2023-05-03T00:35:30.813Z,5.70
2023-05-03T00:37:58.763Z,5.80
2023-05-03T00:40:26.844Z,5.60
2023-05-03T00:42:54.850Z,5.60
2023-05-03T00:45:24.548Z,5.60
2023-05-03T00:47:52.612Z,5.50
2023-05-03T00:50:21.338Z,5.60
2023-05-03T00:52:49.403Z,5.50
2023-05-03T00:55:17.737Z,5.50
2023-05-03T00:57:45.726Z,5.50
2023-05-03T01:00:15.132Z,5.50
2023-05-03T01:02:44.517Z,5.50
2023-05-03T01:05:12.885Z,5.50
2023-05-03T01:07:52.587Z,5.60
2023-05-03T01:10:27.813Z,5.60
2023-05-03T01:13:01.594Z,5.60
2023-05-03T01:15:43.024Z,5.60
2023-05-03T01:18:16.226Z,5.60
2023-05-03T01:20:48.039Z,5.60
2023-05-03T01:23:22.958Z,5.50
2023-05-03T01:25:54.351Z,5.50
2023-05-03T01:28:22.443Z,5.50
2023-05-03T01:30:53.271Z,5.50
2023-05-03T01:33:27.322Z,5.50
2023-05-03T01:36:00.670Z,5.40
2023-05-03T01:38:34.433Z,5.40
2023-05-03T01:41:07.531Z,5.40
2023-05-03T01:43:36.851Z,5.30
2023-05-03T01:46:04.984Z,5.20
2023-05-03T01:48:32.993Z,5.10
2023-05-03T01:51:00.942Z,5.10
2023-05-03T01:53:28.925Z,5.10
2023-05-03T01:55:56.854Z,5.00
2023-05-03T01:58:26.265Z,5.00
2023-05-03T02:00:54.362Z,5.00
2023-05-03T02:03:22.582Z,5.00
2023-05-03T02:05:50.610Z,5.00
2023-05-03T02:08:18.596Z,5.00
2023-05-03T02:10:46.572Z,5.00
2023-05-03T02:13:14.968Z,5.00
2023-05-03T02:15:44.433Z,5.00
2023-05-03T02:18:12.373Z,5.00
2023-05-03T02:20:40.330Z,4.90
2023-05-03T02:23:08.332Z,4.90
2023-05-03T02:25:36.385Z,4.90
2023-05-03T02:28:04.395Z,4.90
2023-05-03T02:30:32.401Z,4.80
2023-05-03T02:33:01.855Z,4.80
2023-05-03T02:35:30.430Z,4.90
2023-05-03T02:37:58.446Z,4.90
2023-05-03T02:40:26.917Z,4.90
2023-05-03T02:42:55.758Z,4.90
2023-05-03T02:45:28.258Z,4.90
2023-05-03T02:47:56.308Z,4.80
2023-05-03T02:50:27.313Z,4.70
2023-05-03T02:52:55.346Z,4.70
2023-05-03T02:55:23.984Z,4.60
2023-05-03T02:57:52.018Z,4.70
2023-05-03T03:00:21.634Z,4.70
2023-05-03T03:02:50.039Z,4.60
2023-05-03T03:05:18.094Z,4.60
2023-05-03T03:07:51.733Z,4.60
2023-05-03T03:10:19.909Z,4.70
2023-05-03T03:12:47.926Z,4.60
2023-05-03T03:15:24.677Z,4.70
2023-05-03T03:17:57.613Z,4.60
2023-05-03T03:20:26.697Z,4.60
2023-05-03T03:22:56.152Z,4.60
2023-05-03T03:25:24.337Z,4.50
2023-05-03T03:27:53.538Z,4.50
2023-05-03T03:30:21.491Z,4.50
2023-05-03T03:32:59.441Z,4.60
2023-05-03T03:35:34.972Z,4.60
2023-05-03T03:38:04.935Z,4.60
2023-05-03T03:40:34.750Z,4.60
2023-05-03T03:43:02.800Z,4.60
2023-05-03T03:45:31.413Z,4.60
2023-05-03T03:48:00.579Z,4.60
2023-05-03T03:50:29.009Z,4.50
2023-05-03T03:52:57.689Z,4.50
2023-05-03T03:55:27.752Z,4.60
2023-05-03T03:57:56.719Z,4.60
2023-05-03T04:00:26.787Z,4.50
2023-05-03T04:03:07.185Z,4.40
2023-05-03T04:05:35.753Z,4.50
2023-05-03T04:08:04.315Z,4.60
2023-05-03T04:10:35.959Z,4.60
2023-05-03T04:13:04.115Z,4.70
2023-05-03T04:15:33.316Z,4.70
2023-05-03T04:18:03.555Z,4.70
2023-05-03T04:20:32.942Z,4.70
2023-05-03T04:23:02.099Z,4.70
2023-05-03T04:25:32.155Z,4.70
2023-05-03T04:28:07.298Z,4.70
2023-05-03T04:30:36.628Z,4.80
2023-05-03T04:33:04.875Z,4.90
2023-05-03T04:35:36.166Z,5.00
2023-05-03T04:38:09.700Z,5.00
2023-05-03T04:40:41.221Z,5.10
2023-05-03T04:43:12.837Z,5.10
2023-05-03T04:45:45.175Z,5.30
2023-05-03T04:48:18.253Z,5.40
2023-05-03T04:50:46.488Z,5.50
2023-05-03T04:53:16.737Z,5.60
2023-05-03T04:55:48.597Z,5.70
2023-05-03T04:58:18.035Z,5.80
2023-05-03T05:00:46.834Z,6.00
2023-05-03T05:03:22.411Z,6.80
2023-05-03T05:05:51.615Z,7.90
2023-05-03T05:08:20.840Z,8.80
2023-05-03T05:10:52.844Z,9.50
2023-05-03T05:13:26.641Z,10.10
2023-05-03T05:15:55.623Z,10.00
2023-05-03T05:18:23.613Z,9.90
2023-05-03T05:20:52.982Z,10.20
2023-05-03T05:23:21.807Z,10.80
2023-05-03T05:25:49.948Z,10.80
2023-05-03T05:28:18.738Z,11.20
2023-05-03T05:30:49.006Z,11.10
2023-05-03T05:33:18.934Z,11.30
2023-05-03T05:35:48.587Z,11.60
2023-05-03T05:38:18.530Z,11.80
2023-05-03T05:40:46.610Z,11.90
2023-05-03T05:43:14.723Z,12.00
2023-05-03T05:45:45.727Z,12.70
2023-05-03T05:48:15.639Z,13.00
2023-05-03T05:50:44.805Z,13.00
2023-05-03T05:53:14.628Z,13.50
2023-05-03T05:55:48.987Z,13.20
2023-05-03T05:58:17.710Z,12.50
2023-05-03T06:00:51.107Z,12.70
2023-05-03T06:03:21.079Z,13.10
2023-05-03T06:05:51.272Z,13.40
2023-05-03T06:08:19.266Z,13.30
2023-05-03T06:10:47.274Z,13.30
2023-05-03T06:13:15.671Z,12.90
2023-05-03T06:15:44.871Z,13.20
2023-05-03T06:18:12.867Z,13.00
2023-05-03T06:20:42.301Z,12.80
2023-05-03T06:23:10.451Z,12.60
2023-05-03T06:25:39.038Z,11.80
2023-05-03T06:28:07.330Z,11.40
2023-05-03T06:30:36.935Z,12.30
2023-05-03T06:33:14.759Z,12.60
2023-05-03T06:35:47.189Z,11.80
2023-05-03T06:38:16.744Z,11.40
2023-05-03T06:40:46.164Z,11.30
2023-05-03T06:43:14.200Z,11.50
2023-05-03T06:45:53.334Z,11.60
2023-05-03T06:48:21.728Z,11.40
2023-05-03T06:50:51.283Z,11.40
2023-05-03T06:53:19.269Z,10.90
2023-05-03T06:55:47.238Z,10.90
2023-05-03T06:58:16.646Z,10.70
2023-05-03T07:00:44.673Z,10.50
2023-05-03T07:03:15.831Z,10.70
2023-05-03T07:05:44.238Z,10.90
2023-05-03T07:08:13.612Z,11.20
2023-05-03T07:10:41.833Z,11.50
2023-05-03T07:13:10.033Z,11.90
2023-05-03T07:15:38.044Z,11.80
2023-05-03T07:18:06.142Z,11.90
2023-05-03T07:20:34.170Z,11.70
2023-05-03T07:23:02.179Z,11.70
2023-05-03T07:25:31.616Z,11.80
2023-05-03T07:27:59.639Z,11.90
2023-05-03T07:30:27.706Z,11.60
2023-05-03T07:32:55.785Z,11.50
2023-05-03T07:35:24.144Z,11.40
2023-05-03T07:37:52.081Z,11.60
2023-05-03T07:40:20.255Z,11.70
2023-05-03T07:42:49.554Z,11.30
2023-05-03T07:45:18.353Z,11.30
2023-05-03T07:47:46.379Z,11.50
2023-05-03T07:50:14.346Z,11.80
2023-05-03T07:52:43.438Z,11.90
2023-05-03T07:55:11.674Z,12.10
2023-05-03T07:57:39.669Z,11.70
2023-05-03T08:00:11.311Z,11.60
2023-05-03T08:02:42.657Z,11.90
2023-05-03T08:05:14.565Z,12.20
2023-05-03T08:07:42.906Z,12.00
2023-05-03T08:10:11.837Z,11.90
2023-05-03T08:12:39.952Z,12.00
2023-05-03T08:15:10.183Z,11.90
2023-05-03T08:17:42.482Z,11.90
2023-05-03T08:20:11.273Z,12.00
2023-05-03T08:22:40.485Z,11.90
2023-05-03T08:25:09.850Z,12.10
2023-05-03T08:27:38.952Z,12.50
2023-05-03T08:30:10.652Z,12.80
2023-05-03T08:32:38.732Z,12.80
2023-05-03T08:35:07.569Z,13.00
2023-05-03T08:37:43.195Z,13.00
2023-05-03T08:40:13.995Z,12.80
2023-05-03T08:42:43.281Z,12.60
2023-05-03T08:45:14.819Z,12.80
2023-05-03T08:47:44.981Z,13.00
2023-05-03T08:50:14.455Z,12.90
2023-05-03T08:52:43.791Z,12.90
2023-05-03T08:55:12.759Z,13.40
2023-05-03T08:57:41.231Z,13.70
2023-05-03T09:00:13.005Z,13.70
2023-05-03T09:02:43.015Z,13.90
2023-05-03T09:05:34.272Z,14.10
2023-05-03T09:08:03.609Z,14.20
2023-05-03T09:10:31.848Z,14.20
2023-05-03T09:13:01.086Z,14.60
2023-05-03T09:15:30.427Z,15.50
2023-05-03T09:18:10.808Z,15.60
2023-05-03T09:20:40.909Z,15.60
2023-05-03T09:23:09.663Z,15.80
2023-05-03T09:25:45.823Z,17.00
2023-05-03T09:28:14.283Z,17.60
2023-05-03T09:30:42.928Z,17.80
2023-05-03T09:33:12.559Z,17.10
2023-05-03T09:35:56.279Z,17.60
2023-05-03T09:38:29.215Z,17.80
2023-05-03T09:40:57.462Z,17.30
2023-05-03T09:43:25.608Z,17.50
2023-05-03T09:45:53.721Z,17.90
2023-05-03T09:48:26.933Z,18.50
2023-05-03T09:50:55.279Z,18.90
2023-05-03T09:53:24.321Z,19.10
2023-05-03T09:55:52.829Z,19.40
2023-05-03T09:58:21.748Z,19.00
2023-05-03T10:00:52.656Z,19.20
2023-05-03T10:03:27.507Z,19.20
2023-05-03T10:05:56.501Z,19.70
2023-05-03T10:08:29.171Z,19.30
2023-05-03T10:10:57.544Z,18.80
2023-05-03T10:13:26.028Z,18.60
2023-05-03T10:15:58.855Z,18.60
2023-05-03T10:18:30.942Z,18.60
2023-05-03T10:21:03.241Z,19.50
2023-05-03T10:23:31.201Z,19.60
2023-05-03T10:26:15.116Z,20.00
2023-05-03T10:28:43.447Z,20.00
2023-05-03T10:31:45.015Z,19.70
2023-05-03T10:34:24.450Z,19.80
2023-05-03T10:36:54.279Z,20.20
2023-05-03T10:39:22.728Z,20.40
2023-05-03T10:42:01.354Z,20.50
2023-05-03T10:44:35.833Z,21.20
2023-05-03T10:47:13.627Z,21.70
2023-05-03T10:49:43.160Z,21.90
2023-05-03T10:52:50.860Z,20.30
2023-05-03T10:55:21.773Z,20.30
2023-05-03T10:57:51.098Z,19.70
2023-05-03T11:00:24.298Z,20.70
2023-05-03T11:03:10.803Z,20.30
2023-05-03T11:05:40.869Z,20.40
2023-05-03T11:08:10.633Z,20.70
2023-05-03T11:10:38.646Z,20.50
2023-05-03T11:13:09.464Z,20.80
2023-05-03T11:15:37.587Z,20.80
2023-05-03T11:18:07.340Z,20.30
2023-05-03T11:20:36.069Z,20.60
2023-05-03T11:23:06.001Z,21.10
2023-05-03T11:25:34.583Z,21.10
2023-05-03T11:28:03.418Z,20.40
2023-05-03T11:30:33.436Z,20.20
2023-05-03T11:33:01.525Z,20.20
2023-05-03T11:35:30.801Z,20.70
2023-05-03T11:37:58.835Z,21.00
2023-05-03T11:40:28.187Z,20.70
2023-05-03T11:42:58.368Z,20.30
2023-05-03T11:45:27.658Z,20.20
2023-05-03T11:47:55.976Z,20.60
2023-05-03T11:50:46.423Z,21.40
2023-05-03T11:53:15.695Z,22.30
2023-05-03T11:55:48.142Z,22.20
2023-05-03T11:58:17.545Z,21.40
2023-05-03T12:00:46.850Z,20.90
2023-05-03T12:03:19.628Z,21.10
2023-05-03T12:05:49.361Z,21.10
2023-05-03T12:08:20.774Z,20.80
2023-05-03T12:10:54.799Z,20.60
2023-05-03T12:13:33.457Z,20.40
2023-05-03T12:18:51.607Z,20.20
2023-05-03T12:23:55.921Z,20.40
2023-05-03T12:26:27.308Z,20.30
2023-05-03T12:28:56.929Z,20.10
2023-05-03T12:31:28.835Z,19.60
2023-05-03T12:34:12.471Z,19.60
2023-05-03T12:36:48.707Z,19.50
2023-05-03T12:39:20.385Z,19.70
2023-05-03T12:44:23.719Z,19.90
2023-05-03T12:46:53.487Z,19.40
2023-05-03T12:49:23.481Z,19.80
2023-05-03T12:52:04.833Z,19.80
2023-05-03T12:54:42.137Z,20.00
2023-05-03T12:57:15.592Z,19.60
2023-05-03T12:59:51.791Z,19.60
2023-05-03T13:04:58.887Z,20.00
2023-05-03T13:07:30.603Z,19.80
2023-05-03T13:12:33.351Z,19.30
2023-05-03T13:15:04.431Z,19.10
2023-05-03T13:17:33.011Z,19.10
2023-05-03T13:20:01.322Z,19.20
2023-05-03T13:22:29.322Z,18.20
2023-05-03T13:24:57.326Z,18.30
2023-05-03T13:27:25.404Z,18.60
2023-05-03T13:29:54.748Z,18.90
2023-05-03T13:32:22.761Z,19.10
2023-05-03T13:34:50.787Z,19.00
2023-05-03T13:37:19.655Z,19.00
2023-05-03T13:39:48.204Z,18.90
2023-05-03T13:42:16.256Z,18.40
2023-05-03T13:44:46.387Z,18.10
2023-05-03T13:47:16.357Z,17.90
2023-05-03T13:49:44.374Z,18.10
2023-05-03T13:52:12.389Z,18.30
2023-05-03T13:54:42.368Z,18.10
2023-05-03T13:57:10.479Z,18.10
2023-05-03T13:59:38.571Z,18.20
2023-05-03T14:02:06.580Z,18.00
2023-05-03T14:04:35.995Z,18.20
2023-05-03T14:07:04.269Z,18.00
2023-05-03T14:09:32.321Z,18.00
2023-05-03T14:12:00.364Z,18.00
2023-05-03T14:14:29.073Z,17.70
2023-05-03T14:16:57.142Z,17.60
2023-05-03T14:19:25.224Z,17.70
2023-05-03T14:21:59.418Z,17.80
2023-05-03T14:24:27.592Z,17.60
2023-05-03T14:26:55.587Z,17.70
2023-05-03T14:29:23.625Z,17.40
2023-05-03T14:31:51.839Z,17.40
2023-05-03T14:34:19.850Z,17.40
2023-05-03T14:36:47.792Z,17.40
2023-05-03T14:39:17.299Z,17.60
2023-05-03T14:41:45.388Z,17.80
2023-05-03T14:44:13.426Z,17.60
2023-05-03T14:46:41.794Z,17.70
2023-05-03T14:49:09.862Z,17.90
2023-05-03T14:51:37.878Z,17.90
2023-05-03T14:54:05.954Z,17.80
2023-05-03T14:56:35.304Z,17.80
2023-05-03T14:59:04.415Z,18.00
2023-05-03T15:01:32.505Z,18.10
2023-05-03T15:04:00.822Z,17.90
2023-05-03T15:06:32.013Z,18.00
2023-05-03T15:09:00.412Z,18.00
2023-05-03T15:11:28.543Z,17.80
2023-05-03T15:13:58.636Z,17.90
2023-05-03T15:16:26.903Z,17.90
2023-05-03T15:18:54.957Z,17.90
2023-05-03T15:21:23.733Z,18.00
2023-05-03T15:23:51.803Z,18.10
2023-05-03T15:26:19.833Z,17.90
2023-05-03T15:28:47.779Z,18.00
2023-05-03T15:31:17.561Z,18.00
2023-05-03T15:33:45.902Z,17.80
2023-05-03T15:36:14.666Z,17.70
2023-05-03T15:38:42.617Z,17.60
2023-05-03T15:41:10.783Z,17.60
2023-05-03T15:43:38.904Z,17.70
2023-05-03T15:46:07.390Z,17.80
2023-05-03T15:48:37.008Z,17.80
2023-05-03T15:51:05.730Z,17.60
2023-05-03T15:53:33.885Z,17.70
2023-05-03T15:56:02.481Z,17.70
2023-05-03T15:58:30.718Z,17.60
2023-05-03T16:00:59.330Z,17.50
2023-05-03T16:03:28.685Z,17.30
2023-05-03T16:05:58.611Z,17.40
2023-05-03T16:08:26.790Z,17.40
2023-05-03T16:10:54.770Z,17.30
2023-05-03T16:13:22.986Z,17.30
2023-05-03T16:15:52.466Z,17.20
2023-05-03T16:18:20.773Z,17.30
2023-05-03T16:20:49.248Z,17.40
2023-05-03T16:23:18.600Z,17.40
2023-05-03T16:25:47.131Z,17.20
2023-05-03T16:28:15.071Z,17.00
2023-05-03T16:30:43.684Z,17.00
2023-05-03T16:33:11.800Z,16.90
2023-05-03T16:35:39.800Z,17.00
2023-05-03T16:38:07.775Z,17.00
2023-05-03T16:40:40.218Z,17.10
2023-05-03T16:43:08.722Z,17.00
2023-05-03T16:45:37.406Z,17.00
2023-05-03T16:48:07.510Z,17.00
2023-05-03T16:50:37.081Z,17.00
2023-05-03T16:53:05.076Z,17.00
2023-05-03T16:55:33.195Z,17.00
2023-05-03T16:58:02.498Z,16.80
2023-05-03T17:00:30.441Z,16.90
2023-05-03T17:02:58.540Z,16.90
2023-05-03T17:05:32.717Z,16.90
2023-05-03T17:08:01.042Z,16.80
2023-05-03T17:10:29.715Z,16.70
2023-05-03T17:12:58.813Z,16.70
2023-05-03T17:15:28.321Z,16.60
2023-05-03T17:17:56.361Z,16.60
2023-05-03T17:20:24.387Z,16.60
2023-05-03T17:22:52.508Z,16.50
2023-05-03T17:25:21.119Z,16.50
2023-05-03T17:27:49.404Z,16.50
2023-05-03T17:30:20.796Z,16.40
2023-05-03T17:32:50.704Z,16.40
2023-05-03T17:35:18.864Z,16.30
2023-05-03T17:37:47.065Z,16.20
2023-05-03T17:40:15.299Z,16.20
2023-05-03T17:42:43.289Z,16.20
2023-05-03T17:45:12.638Z,16.10
2023-05-03T17:47:40.646Z,16.10
2023-05-03T17:50:12.412Z,16.00
2023-05-03T17:52:41.621Z,15.90
2023-05-03T17:55:10.727Z,15.90
2023-05-03T17:57:42.079Z,15.80
2023-05-03T18:00:15.242Z,15.70
2023-05-03T18:02:43.566Z,15.60
2023-05-03T18:05:13.173Z,15.50
2023-05-03T18:07:41.204Z,15.40
2023-05-03T18:10:14.424Z,15.30
2023-05-03T18:12:42.573Z,15.10
2023-05-03T18:15:11.521Z,15.10
2023-05-03T18:17:39.580Z,14.90
2023-05-03T18:20:09.646Z,14.80
2023-05-03T18:22:39.160Z,14.70
2023-05-03T18:25:08.162Z,14.70
2023-05-03T18:27:37.494Z,14.50
2023-05-03T18:30:07.179Z,14.50
2023-05-03T18:32:35.510Z,14.40
2023-05-03T18:35:04.127Z,14.30
2023-05-03T18:37:32.105Z,14.20
2023-05-03T18:40:01.494Z,14.10
2023-05-03T18:42:31.871Z,14.10
2023-05-03T18:44:59.855Z,14.00
2023-05-03T18:47:28.623Z,13.90
2023-05-03T18:49:56.668Z,13.80
2023-05-03T18:52:24.618Z,13.70
2023-05-03T18:54:52.573Z,13.60
2023-05-03T18:57:21.896Z,13.60
2023-05-03T19:00:07.853Z,13.60
2023-05-03T19:02:36.147Z,13.50
2023-05-03T19:05:04.168Z,13.40
2023-05-03T19:07:32.157Z,13.30
2023-05-03T19:10:00.924Z,13.30
2023-05-03T19:12:30.350Z,13.20
2023-05-03T19:14:58.312Z,13.00
2023-05-03T19:17:26.424Z,13.00
2023-05-03T19:19:54.440Z,12.90
2023-05-03T19:22:22.472Z,12.90
2023-05-03T19:24:50.498Z,12.80
2023-05-03T19:27:18.440Z,12.70
2023-05-03T19:29:48.330Z,12.60
2023-05-03T19:32:16.572Z,12.60
2023-05-03T19:34:44.521Z,12.60
2023-05-03T19:37:12.513Z,12.40
2023-05-03T19:39:40.475Z,12.30
2023-05-03T19:42:08.909Z,12.20
2023-05-03T19:44:37.438Z,12.20
2023-05-03T19:47:06.918Z,12.20
2023-05-03T19:49:34.962Z,12.00
2023-05-03T19:52:04.486Z,12.00
2023-05-03T19:54:32.830Z,11.90
2023-05-03T19:57:04.638Z,12.00
2023-05-03T19:59:32.666Z,11.90
2023-05-03T20:02:00.917Z,12.00
2023-05-03T20:04:30.349Z,12.00
2023-05-03T20:06:58.327Z,12.00
2023-05-03T20:09:26.305Z,11.90
2023-05-03T20:11:58.632Z,11.90
2023-05-03T20:14:27.857Z,11.80
2023-05-03T20:16:56.880Z,11.80
2023-05-03T20:19:25.581Z,11.80
2023-05-03T20:21:55.043Z,11.80
2023-05-03T20:24:23.206Z,11.80
2023-05-03T20:26:51.225Z,11.70
2023-05-03T20:29:19.211Z,11.70
2023-05-03T20:31:48.574Z,11.70
2023-05-03T20:34:16.758Z,11.80
2023-05-03T20:36:44.698Z,11.70
2023-05-03T20:39:14.650Z,11.70
2023-05-03T20:41:42.593Z,11.70
2023-05-03T20:44:10.651Z,11.60
2023-05-03T20:46:38.828Z,11.60
2023-05-03T20:49:09.025Z,11.60
2023-05-03T20:51:37.848Z,11.40
2023-05-03T20:54:06.065Z,11.40
2023-05-03T20:56:35.372Z,11.30
2023-05-03T20:59:03.710Z,11.30
2023-05-03T21:01:32.254Z,11.20
2023-05-03T21:04:00.175Z,11.20
2023-05-03T21:06:28.182Z,11.20
2023-05-03T21:08:56.041Z,11.20
2023-05-03T21:11:23.960Z,11.10
2023-05-03T21:13:53.193Z,11.10
2023-05-03T21:16:21.249Z,11.10
2023-05-03T21:18:49.210Z,11.10
2023-05-03T21:21:17.153Z,11.10
2023-05-03T21:23:45.356Z,11.10
2023-05-03T21:26:13.328Z,11.00
2023-05-03T21:28:41.336Z,11.10
2023-05-03T21:31:10.698Z,11.00
2023-05-03T21:33:38.704Z,10.90
2023-05-03T21:36:07.562Z,10.90
2023-05-03T21:38:35.877Z,10.90
2023-05-03T21:41:05.182Z,10.90
2023-05-03T21:43:33.294Z,11.00
2023-05-03T21:46:01.346Z,11.00
2023-05-03T21:48:31.314Z,11.00
2023-05-03T21:50:59.314Z,11.00
2023-05-03T21:53:28.399Z,11.00
2023-05-03T21:55:56.353Z,10.90
2023-05-03T21:58:24.393Z,10.90
2023-05-03T22:00:52.720Z,10.80
2023-05-03T22:03:20.870Z,10.80
2023-05-03T22:05:51.393Z,10.70
2023-05-03T22:08:19.713Z,10.70
2023-05-03T22:10:47.660Z,10.80
2023-05-03T22:13:15.801Z,10.80
2023-05-03T22:15:43.840Z,10.80
2023-05-03T22:18:11.836Z,10.80
2023-05-03T22:20:41.585Z,10.70
2023-05-03T22:23:10.913Z,10.80
2023-05-03T22:25:38.881Z,10.80
2023-05-03T22:28:06.838Z,10.80
2023-05-03T22:30:34.841Z,10.80
2023-05-03T22:33:02.794Z,10.80
2023-05-03T22:35:30.789Z,10.90
2023-05-03T22:37:58.775Z,10.80
2023-05-03T22:40:28.053Z,10.80
2023-05-03T22:42:56.316Z,10.80
2023-05-03T22:45:24.360Z,10.60
2023-05-03T22:47:52.390Z,10.50
2023-05-03T22:50:20.379Z,10.40
2023-05-03T22:52:48.335Z,10.30
2023-05-03T22:55:16.264Z,10.30
2023-05-03T22:57:45.551Z,10.20
2023-05-03T23:00:14.404Z,10.20
2023-05-03T23:02:42.534Z,10.10
2023-05-03T23:05:10.860Z,10.10
2023-05-03T23:07:38.808Z,10.00
2023-05-03T23:10:08.432Z,9.90
2023-05-03T23:12:36.550Z,9.90
2023-05-03T23:15:07.192Z,10.00
2023-05-03T23:17:35.422Z,10.00
2023-05-03T23:20:05.459Z,9.90
2023-05-03T23:22:33.661Z,9.90
2023-05-03T23:25:01.754Z,9.80
2023-05-03T23:27:29.698Z,9.80
2023-05-03T23:29:58.202Z,9.80
2023-05-03T23:32:28.148Z,9.70
2023-05-03T23:34:56.533Z,9.70
2023-05-03T23:37:24.531Z,9.80
2023-05-03T23:39:53.554Z,9.70
2023-05-03T23:42:21.983Z,9.70
2023-05-03T23:44:55.332Z,9.70
2023-05-03T23:47:24.282Z,9.60
2023-05-03T23:49:53.683Z,9.60
2023-05-03T23:52:21.665Z,9.60
2023-05-03T23:54:49.599Z,9.50
2023-05-03T23:57:18.066Z,9.50
2023-05-03T23:59:46.593Z,9.50
